Time;durP1;ratioP1;P1;durP2;ratioP2;P2;SDS_P1;SDS_P2;PMS_P1;PMS_P2;Temp;Humidity;BMP_temperature;BMP_pressure;BME280_temperature;BME280_humidity;BME280_pressure;Samples;Min_cycle;Max_cycle;Signal;HPM_P1;HPM_P2
2022/09/11 00:01:02;;;;;;;;;16.50;14.75;;;;;18.13;73.20;101544.53;4902323;29;45404;-74
2022/09/11 00:03:28;;;;;;;;;11.50;11.50;;;;;18.15;72.83;101545.31;4903543;29;45907;-74
2022/09/11 00:05:54;;;;;;;;;14.50;14.50;;;;;18.14;72.73;101546.28;4903165;28;45281;-74
2022/09/11 00:08:20;;;;;;;;;17.00;12.75;;;;;18.07;73.42;101534.91;4903639;29;45631;-74
2022/09/11 00:10:47;;;;;;;;;16.75;15.25;;;;;18.11;72.66;101539.22;4903442;29;45550;-74
2022/09/11 00:13:21;;;;;;;;;15.25;13.25;;;;;18.09;73.27;101537.53;4902517;28;46172;-74
2022/09/11 00:15:49;;;;;;;;;14.75;13.50;;;;;18.07;73.16;101539.44;4897900;29;45598;-74
2022/09/11 00:18:16;;;;;;;;;14.25;14.25;;;;;18.08;72.66;101539.38;4896523;29;45330;-74
2022/09/11 00:20:53;;;;;;;;;15.75;15.75;;;;;18.05;72.76;101535.94;4903022;29;45500;-74
2022/09/11 00:23:21;;;;;;;;;15.00;13.75;;;;;18.07;73.14;101537.59;4901639;29;46095;-74
2022/09/11 00:25:47;;;;;;;;;17.50;16.25;;;;;18.07;73.12;101545.72;4903310;29;45434;-74
2022/09/11 00:28:15;;;;;;;;;15.00;13.50;;;;;18.04;72.99;101532.38;4903274;29;45462;-74
2022/09/11 00:30:43;;;;;;;;;14.25;9.75;;;;;18.05;73.04;101542.22;4902925;29;45384;-74
2022/09/11 00:33:11;;;;;;;;;16.50;15.50;;;;;18.05;73.12;101536.81;4902096;29;45978;-74
2022/09/11 00:35:37;;;;;;;;;21.00;17.00;;;;;17.99;72.95;101525.44;4901775;28;45471;-74
2022/09/11 00:38:02;;;;;;;;;19.50;14.25;;;;;17.96;73.06;101521.97;4903108;29;45539;-74
2022/09/11 00:40:27;;;;;;;;;17.00;17.00;;;;;18.01;72.94;101537.94;4903209;29;45528;-74
2022/09/11 00:42:54;;;;;;;;;16.25;13.50;;;;;18.00;72.90;101533.47;4901989;29;46444;-74
2022/09/11 00:45:26;;;;;;;;;21.25;19.25;;;;;17.98;72.64;101529.13;4903086;29;45574;-74
2022/09/11 00:47:57;;;;;;;;;17.00;17.00;;;;;17.97;72.89;101525.53;4902332;29;45352;-74
2022/09/11 00:50:25;;;;;;;;;21.75;17.75;;;;;17.96;73.06;101530.06;4902643;29;45313;-74
2022/09/11 00:52:59;;;;;;;;;20.00;17.50;;;;;17.95;72.94;101522.91;4885356;29;45523;-74
2022/09/11 00:55:30;;;;;;;;;19.50;17.00;;;;;17.94;72.56;101528.38;4902984;29;45650;-74
2022/09/11 00:58:09;;;;;;;;;22.25;21.75;;;;;17.93;73.02;101524.81;4902778;29;45383;-74
2022/09/11 01:00:38;;;;;;;;;26.75;22.50;;;;;17.90;72.57;101519.56;4902825;29;45329;-74
2022/09/11 01:03:04;;;;;;;;;23.75;20.50;;;;;17.88;73.04;101513.38;4901663;29;45538;-74
2022/09/11 01:05:33;;;;;;;;;29.25;28.50;;;;;17.80;72.33;101503.88;4902053;29;45517;-74
2022/09/11 01:07:59;;;;;;;;;33.50;29.75;;;;;17.87;72.93;101524.25;4902479;29;45335;-74
2022/09/11 01:10:58;;;;;;;;;33.00;28.50;;;;;17.87;72.67;101516.16;4902534;29;45578;-74
2022/09/11 01:13:41;;;;;;;;;32.00;28.00;;;;;17.86;72.63;101512.53;4884410;29;46503;-74
2022/09/11 01:16:16;;;;;;;;;30.50;27.75;;;;;17.81;73.03;101505.59;4894475;28;45575;-74
2022/09/11 01:19:13;;;;;;;;;31.00;30.50;;;;;17.81;72.98;101506.50;4899275;29;45504;-74
2022/09/11 01:21:44;;;;;;;;;29.00;27.00;;;;;17.82;72.92;101508.22;4898904;29;45602;-74
2022/09/11 01:24:20;;;;;;;;;27.50;24.50;;;;;17.78;72.86;101503.97;4901932;29;46078;-74
2022/09/11 01:27:08;;;;;;;;;24.50;22.25;;;;;17.80;72.91;101504.75;4902428;29;45587;-74
2022/09/11 01:29:41;;;;;;;;;25.25;23.50;;;;;17.72;72.80;101491.63;4902425;29;45425;-74
2022/09/11 01:32:21;;;;;;;;;24.50;24.50;;;;;17.78;72.64;101503.97;4890638;29;45552;-74
2022/09/11 01:35:00;;;;;;;;;26.00;24.00;;;;;17.76;72.50;101501.34;4902246;29;46288;-74
2022/09/11 01:37:41;;;;;;;;;25.75;23.75;;;;;17.73;72.64;101493.38;4902259;29;45530;-74
2022/09/11 01:40:17;;;;;;;;;23.50;22.50;;;;;17.74;72.87;101497.84;4902541;29;45276;-74
2022/09/11 01:42:44;;;;;;;;;25.50;22.00;;;;;17.73;72.89;101496.06;4887971;29;45444;-74
2022/09/11 01:45:15;;;;;;;;;24.50;21.50;;;;;17.74;72.95;101500.53;4902243;28;46188;-74
2022/09/11 01:47:42;;;;;;;;;20.50;20.00;;;;;17.72;72.98;101498.84;4901808;28;45597;-74
2022/09/11 01:50:11;;;;;;;;;26.25;21.00;;;;;17.72;72.80;101502.41;4902321;29;45387;-74
2022/09/11 01:52:46;;;;;;;;;18.75;18.00;;;;;17.72;72.38;101496.16;4900018;29;45344;-74
2022/09/11 01:55:20;;;;;;;;;20.75;18.00;;;;;17.70;72.97;101498.06;4902133;28;46533;-74
2022/09/11 01:57:55;;;;;;;;;18.25;18.25;;;;;17.70;72.28;101498.06;4901949;29;45733;-74
2022/09/11 02:00:21;;;;;;;;;20.00;18.50;;;;;17.67;72.44;101496.38;4903660;29;45856;-74
2022/09/11 02:03:02;;;;;;;;;19.50;17.25;;;;;17.67;72.72;101487.41;4904177;29;45327;-74
2022/09/11 02:05:32;;;;;;;;;20.25;19.25;;;;;17.68;72.63;101491.88;4905279;29;45508;-73
2022/09/11 02:08:04;;;;;;;;;22.00;19.50;;;;;17.69;72.43;101499.91;4904929;29;45635;-74
2022/09/11 02:10:35;;;;;;;;;18.25;17.25;;;;;17.64;72.22;101493.88;4905377;28;45263;-74
2022/09/11 02:13:06;;;;;;;;;19.75;17.00;;;;;17.65;72.21;101490.19;4903443;29;45462;-74
2022/09/11 02:15:40;;;;;;;;;15.00;14.00;;;;;17.65;72.46;101487.50;4901640;29;46451;-74
2022/09/11 02:18:23;;;;;;;;;15.25;14.50;;;;;17.64;72.51;101498.38;4895810;29;45559;-74
2022/09/11 02:20:51;;;;;;;;;18.00;17.75;;;;;17.63;72.77;101488.53;4892097;29;45410;-74
2022/09/11 02:23:17;;;;;;;;;18.25;16.00;;;;;17.55;72.26;101484.38;4904874;28;45472;-74
2022/09/11 02:25:42;;;;;;;;;18.50;16.50;;;;;17.61;72.27;101494.00;4905052;29;45449;-74
2022/09/11 02:28:07;;;;;;;;;18.00;17.00;;;;;17.55;72.53;101483.50;4904780;28;45511;-74
2022/09/11 02:30:33;;;;;;;;;17.50;16.00;;;;;17.55;72.44;101488.91;4904866;29;45485;-74
2022/09/11 02:32:58;;;;;;;;;16.75;15.25;;;;;17.56;72.83;101491.53;4903241;29;45522;-74
2022/09/11 02:35:32;;;;;;;;;19.00;15.25;;;;;17.54;72.44;101488.03;4904949;29;46027;-74
2022/09/11 02:38:06;;;;;;;;;16.50;15.00;;;;;17.55;72.04;101494.31;4904730;29;45714;-74
2022/09/11 02:40:52;;;;;;;;;18.00;15.25;;;;;17.49;72.31;101494.59;4904968;29;45394;-74
2022/09/11 02:43:45;;;;;;;;;15.50;13.25;;;;;17.50;72.14;101494.53;4904319;29;45563;-74
2022/09/11 02:46:16;;;;;;;;;16.00;15.50;;;;;17.49;72.60;101498.19;4904411;29;45536;-74
2022/09/11 02:48:53;;;;;;;;;18.25;17.50;;;;;17.46;72.44;101498.34;4904718;29;45550;-74
2022/09/11 02:51:31;;;;;;;;;14.50;13.75;;;;;17.47;72.77;101499.19;4903490;29;45325;-74
2022/09/11 02:54:09;;;;;;;;;17.00;14.00;;;;;17.46;72.70;101501.03;4904547;29;45526;-74
2022/09/11 02:56:46;;;;;;;;;15.50;15.50;;;;;17.39;72.75;101491.47;4904582;29;45643;-74
2022/09/11 02:59:31;;;;;;;;;16.25;16.25;;;;;17.42;72.76;101496.72;4904603;29;45362;-74
2022/09/11 03:02:00;;;;;;;;;13.50;13.50;;;;;17.39;72.76;101489.66;4903544;29;45450;-74
2022/09/11 03:04:27;;;;;;;;;13.75;13.00;;;;;17.42;72.71;101499.44;4887572;29;45534;-74
2022/09/11 03:06:52;;;;;;;;;13.75;13.75;;;;;17.41;72.59;101500.41;4903944;29;45703;-74
2022/09/11 03:09:19;;;;;;;;;15.75;13.25;;;;;17.39;72.25;101497.78;4904334;29;45735;-74
2022/09/11 03:11:44;;;;;;;;;14.00;14.00;;;;;17.38;72.50;101487.03;4902066;29;46183;-74
2022/09/11 03:14:10;;;;;;;;;14.50;14.50;;;;;17.38;72.64;101495.13;4904518;29;45429;-74
2022/09/11 03:16:36;;;;;;;;;14.50;14.00;;;;;17.34;72.70;101485.44;4892289;29;45376;-74
2022/09/11 03:19:03;;;;;;;;;14.75;14.00;;;;;17.32;72.37;101481.94;4903396;29;45345;-74
2022/09/11 03:21:29;;;;;;;;;16.50;15.75;;;;;17.35;72.73;101495.28;4903223;29;45497;-74
2022/09/11 03:23:56;;;;;;;;;14.00;14.00;;;;;17.31;72.08;101486.47;4904105;29;45411;-74
2022/09/11 03:26:21;;;;;;;;;14.75;14.50;;;;;17.30;72.58;101484.72;4904085;29;46331;-74
2022/09/11 03:28:47;;;;;;;;;14.25;12.75;;;;;17.27;72.74;101484.84;4904009;29;45356;-74
2022/09/11 03:31:12;;;;;;;;;14.00;13.50;;;;;17.31;72.62;101491.00;4903100;29;45571;-74
2022/09/11 03:33:38;;;;;;;;;14.00;13.00;;;;;17.25;72.45;101477.81;4904173;29;45554;-74
2022/09/11 03:36:04;;;;;;;;;15.00;13.75;;;;;17.26;72.25;101485.81;4902658;29;45511;-74
2022/09/11 03:38:29;;;;;;;;;12.75;12.25;;;;;17.28;72.65;101494.72;4904120;29;45395;-74
2022/09/11 03:40:54;;;;;;;;;16.75;16.75;;;;;17.28;72.79;101488.44;4903722;29;45492;-74
2022/09/11 03:43:20;;;;;;;;;11.50;10.25;;;;;17.21;72.56;101485.19;4903444;29;45670;-74
2022/09/11 03:45:50;;;;;;;;;19.25;18.00;;;;;17.27;72.66;101486.69;4903604;28;46103;-74
2022/09/11 03:48:16;;;;;;;;;18.50;17.00;;;;;17.26;72.64;101483.13;4886889;29;45707;-74
2022/09/11 03:50:44;;;;;;;;;14.50;14.00;;;;;17.25;72.68;101484.06;4903673;29;45415;-74
2022/09/11 03:53:10;;;;;;;;;17.75;15.75;;;;;17.25;72.51;101483.19;4902721;29;45388;-74
2022/09/11 03:55:36;;;;;;;;;14.75;14.25;;;;;17.20;72.66;101478.88;4903457;28;46102;-74
2022/09/11 03:58:01;;;;;;;;;14.75;13.75;;;;;17.19;72.61;101482.56;4903784;29;45370;-74
2022/09/11 04:00:26;;;;;;;;;13.50;13.50;;;;;17.21;72.41;101488.75;4903395;29;45333;-74
2022/09/11 04:02:52;;;;;;;;;15.25;14.00;;;;;17.17;72.20;101478.16;4902923;29;45638;-74
2022/09/11 04:05:18;;;;;;;;;14.00;14.00;;;;;17.16;72.28;101484.53;4902795;28;45334;-74
2022/09/11 04:07:43;;;;;;;;;12.25;12.25;;;;;17.13;72.43;101479.28;4903245;29;45527;-74
2022/09/11 04:10:08;;;;;;;;;12.25;11.00;;;;;17.14;72.56;101473.81;4903513;29;45338;-74
2022/09/11 04:12:34;;;;;;;;;15.00;15.00;;;;;17.14;72.50;101472.91;4901836;29;45297;-74
2022/09/11 04:15:01;;;;;;;;;12.50;12.50;;;;;17.08;72.34;101467.84;4903230;29;45416;-74
2022/09/11 04:17:28;;;;;;;;;15.00;12.50;;;;;17.16;72.26;101484.53;4890574;28;45433;-74
2022/09/11 04:19:53;;;;;;;;;15.00;14.75;;;;;17.14;72.46;101487.28;4903631;29;46710;-74
2022/09/11 04:22:19;;;;;;;;;12.75;12.25;;;;;17.08;72.21;101476.78;4901417;29;55914;-74
2022/09/11 04:24:45;;;;;;;;;15.25;13.25;;;;;17.13;72.34;101487.38;4902749;29;57302;-74
2022/09/11 04:27:11;;;;;;;;;16.25;13.75;;;;;17.12;72.70;101486.47;4903181;29;45571;-74
2022/09/11 04:29:37;;;;;;;;;14.75;13.00;;;;;17.09;72.56;101483.94;4903158;29;45535;-74
2022/09/11 04:32:02;;;;;;;;;13.75;11.50;;;;;17.10;72.48;101485.69;4902193;29;45434;-74
2022/09/11 04:34:27;;;;;;;;;14.00;13.00;;;;;17.08;72.50;101481.31;4886077;29;45997;-74
2022/09/11 04:36:54;;;;;;;;;17.50;15.50;;;;;17.13;72.70;101499.03;4902649;28;50845;-74
2022/09/11 04:39:19;;;;;;;;;15.25;14.00;;;;;17.10;72.50;101485.69;4903302;29;45535;-74
2022/09/11 04:41:45;;;;;;;;;13.75;13.75;;;;;17.10;72.27;101492.91;4902123;29;45661;-74
2022/09/11 04:44:10;;;;;;;;;13.00;13.00;;;;;17.15;72.26;101498.94;4902755;29;46283;-74
2022/09/11 04:46:35;;;;;;;;;14.00;14.00;;;;;17.11;72.56;101490.13;4902742;29;45455;-74
2022/09/11 04:49:03;;;;;;;;;14.75;11.75;;;;;17.09;72.21;101491.13;4902899;29;47662;-74
2022/09/11 04:51:31;;;;;;;;;14.75;12.25;;;;;17.14;72.39;101498.09;4901509;28;45921;-74
2022/09/11 04:53:58;;;;;;;;;13.75;13.75;;;;;17.13;72.37;101495.47;4902144;29;46274;-74
2022/09/11 04:56:26;;;;;;;;;13.00;12.25;;;;;17.12;72.32;101502.66;4902891;29;45644;-74
2022/09/11 04:58:56;;;;;;;;;12.00;12.00;;;;;17.13;72.23;101507.13;4902883;29;45527;-74
2022/09/11 05:01:23;;;;;;;;;14.75;13.75;;;;;17.08;72.08;101500.19;4901837;29;45594;-74
2022/09/11 05:03:49;;;;;;;;;12.00;11.00;;;;;17.08;72.10;101497.50;4902764;29;46498;-74
2022/09/11 05:06:15;;;;;;;;;14.25;12.50;;;;;17.11;72.12;101517.09;4902514;29;45297;-74
2022/09/11 05:08:41;;;;;;;;;13.50;13.50;;;;;17.13;72.37;101517.91;4889981;29;45445;-73
2022/09/11 05:11:14;;;;;;;;;14.75;14.75;;;;;17.11;72.39;101519.81;4901875;29;45461;-74
2022/09/11 05:13:41;;;;;;;;;14.50;13.50;;;;;17.04;71.99;101511.13;4901769;29;47076;-73
2022/09/11 05:16:09;;;;;;;;;11.25;11.25;;;;;17.09;72.08;101518.13;4894499;29;45351;-73
2022/09/11 05:18:35;;;;;;;;;16.25;13.75;;;;;17.09;72.09;101526.22;4898523;29;45557;-74
2022/09/11 05:21:03;;;;;;;;;12.50;12.50;;;;;17.08;72.07;101524.47;4902386;29;45438;-74
2022/09/11 05:23:30;;;;;;;;;12.00;12.00;;;;;17.06;72.26;101519.16;4900067;29;46383;-74
2022/09/11 05:26:01;;;;;;;;;14.25;12.75;;;;;17.06;72.02;101529.94;4902497;29;45550;-74
2022/09/11 05:28:28;;;;;;;;;10.00;10.00;;;;;17.06;71.88;101523.66;4885462;29;45407;-74
2022/09/11 05:30:54;;;;;;;;;12.00;11.50;;;;;17.03;71.94;101525.56;4901984;29;45578;-74
2022/09/11 05:33:24;;;;;;;;;11.50;10.25;;;;;16.99;72.10;101521.25;4901347;29;46273;-74
2022/09/11 05:35:51;;;;;;;;;13.75;11.75;;;;;17.03;72.03;101539.03;4901664;29;45437;-74
2022/09/11 05:38:18;;;;;;;;;14.50;13.75;;;;;17.02;72.20;101539.09;4902416;29;45490;-74
2022/09/11 05:40:48;;;;;;;;;13.75;11.00;;;;;17.00;72.06;101541.00;4902441;29;45495;-74
2022/09/11 05:43:14;;;;;;;;;11.75;11.75;;;;;16.98;72.07;101535.69;4901185;29;46156;-76
2022/09/11 05:45:41;;;;;;;;;10.75;10.50;;;;;17.00;71.76;101547.25;4902023;29;45757;-77
2022/09/11 05:48:07;;;;;;;;;11.25;10.50;;;;;16.95;71.95;101545.75;4902303;29;45337;-76
2022/09/11 05:50:33;;;;;;;;;11.75;10.50;;;;;16.99;72.22;101555.44;4901883;29;45325;-77
2022/09/11 05:52:58;;;;;;;;;13.00;12.00;;;;;16.97;72.11;101555.53;4900320;29;46094;-77
2022/09/11 05:55:24;;;;;;;;;13.25;10.75;;;;;16.95;71.97;101552.00;4902281;29;45360;-77
2022/09/11 05:57:51;;;;;;;;;12.75;11.75;;;;;16.91;72.18;101541.44;4901245;29;45428;-77
2022/09/11 06:00:16;;;;;;;;;14.25;11.75;;;;;16.93;72.25;101555.72;4901651;29;45281;-77
2022/09/11 06:02:41;;;;;;;;;12.75;10.75;;;;;16.87;72.23;101546.09;4900574;29;45413;-77
2022/09/11 06:05:07;;;;;;;;;13.00;12.00;;;;;16.93;72.41;101558.44;4902147;29;45416;-76
2022/09/11 06:07:34;;;;;;;;;8.00;8.00;;;;;16.81;72.21;101544.53;4901586;29;45335;-78
2022/09/11 06:09:59;;;;;;;;;11.75;11.50;;;;;16.85;71.95;101558.78;4903419;28;45392;-69
2022/09/11 06:12:26;;;;;;;;;12.50;12.25;;;;;16.82;72.13;101548.97;4901572;29;45514;-70
2022/09/11 06:14:51;;;;;;;;;12.25;11.00;;;;;16.83;72.32;101550.72;4901898;29;45498;-68
2022/09/11 06:17:17;;;;;;;;;11.25;9.75;;;;;16.83;72.08;101547.16;4900969;29;46088;-67
2022/09/11 06:19:42;;;;;;;;;16.50;14.25;;;;;16.94;72.57;101566.44;4902050;29;45435;-67
2022/09/11 06:22:07;;;;;;;;;15.00;13.25;;;;;16.84;72.47;101555.22;4899746;29;47977;-67
2022/09/11 06:24:33;;;;;;;;;16.00;13.75;;;;;16.93;72.22;101564.69;4884650;29;45390;-68
2022/09/11 06:26:58;;;;;;;;;17.00;14.25;;;;;16.86;72.32;101563.22;4901736;29;45230;-68
2022/09/11 06:29:24;;;;;;;;;14.50;14.50;;;;;16.90;72.52;101567.53;4901366;29;45398;-68
2022/09/11 06:31:50;;;;;;;;;15.75;15.00;;;;;16.83;72.55;101555.25;4901270;29;46065;-68
2022/09/11 06:34:16;;;;;;;;;18.00;16.25;;;;;16.91;72.80;101571.13;4884545;29;45296;-68
2022/09/11 06:36:42;;;;;;;;;15.75;15.50;;;;;16.89;72.87;101565.78;4900175;28;45476;-68
2022/09/11 06:39:08;;;;;;;;;11.75;11.75;;;;;16.84;73.01;101557.91;4901755;29;45415;-68
2022/09/11 06:41:33;;;;;;;;;17.00;16.00;;;;;16.80;72.70;101550.84;4884223;29;47173;-68
2022/09/11 06:43:59;;;;;;;;;18.75;15.50;;;;;16.94;72.98;101577.25;4901256;29;45391;-68
2022/09/11 06:46:24;;;;;;;;;21.00;17.75;;;;;16.89;72.98;101565.78;4901499;29;45411;-68
2022/09/11 06:48:51;;;;;;;;;16.00;16.00;;;;;16.89;73.10;101564.88;4904867;29;45332;-69
2022/09/11 06:51:18;;;;;;;;;21.25;19.25;;;;;16.93;73.40;101575.47;4887385;28;47940;-67
2022/09/11 06:53:46;;;;;;;;;21.50;19.50;;;;;16.73;73.63;101533.22;4893882;29;45476;-66
2022/09/11 06:56:14;;;;;;;;;17.25;17.25;;;;;16.88;73.85;101561.31;4915114;28;45351;-71
2022/09/11 06:58:40;;;;;;;;;18.50;17.25;;;;;16.84;73.95;101543.53;4905604;28;45797;-71
2022/09/11 07:01:09;;;;;;;;;20.00;20.00;;;;;16.88;74.24;101546.97;4889841;29;47976;-71
2022/09/11 07:03:34;;;;;;;;;19.75;19.75;;;;;16.85;74.33;101543.44;4870644;29;45860;-68
2022/09/11 07:06:00;;;;;;;;;22.00;20.50;;;;;16.82;74.04;101538.19;4902212;29;45386;-68
2022/09/11 07:08:26;;;;;;;;;21.75;20.75;;;;;17.06;74.18;101562.31;4903372;29;45473;-74
2022/09/11 07:10:51;;;;;;;;;19.25;18.25;;;;;17.06;74.48;101572.19;4904362;29;45984;-74
2022/09/11 07:13:17;;;;;;;;;22.25;21.75;;;;;17.02;74.64;101558.88;4903372;29;45458;-74
2022/09/11 07:15:43;;;;;;;;;25.00;25.00;;;;;17.08;74.82;101563.09;4903379;29;45423;-74
2022/09/11 07:18:08;;;;;;;;;24.00;24.00;;;;;17.14;74.94;101565.53;4901965;29;45456;-74
2022/09/11 07:20:34;;;;;;;;;23.75;19.75;;;;;17.16;75.08;101577.13;4914788;28;46243;-74
2022/09/11 07:22:59;;;;;;;;;27.25;23.25;;;;;17.16;74.54;101566.31;4909491;28;45350;-74
2022/09/11 07:25:25;;;;;;;;;25.50;22.25;;;;;17.10;75.27;101563.91;4903720;29;45604;-74
2022/09/11 07:27:51;;;;;;;;;28.00;25.75;;;;;17.16;75.16;101563.63;4903819;29;45571;-73
2022/09/11 07:30:18;;;;;;;;;25.25;23.75;;;;;17.17;75.16;101569.88;4903682;29;46387;-74
2022/09/11 07:32:44;;;;;;;;;31.25;28.50;;;;;17.25;75.56;101585.72;4904124;29;45262;-74
2022/09/11 07:35:10;;;;;;;;;22.25;22.25;;;;;17.25;75.42;101578.50;4904289;29;45446;-74
2022/09/11 07:37:35;;;;;;;;;22.50;21.00;;;;;17.25;75.35;101581.19;4903840;29;45324;-74
2022/09/11 07:40:01;;;;;;;;;25.00;25.00;;;;;17.22;75.52;101570.53;4903693;29;46251;-74
2022/09/11 07:42:27;;;;;;;;;25.00;25.00;;;;;17.29;74.98;101577.41;4902814;29;45387;-74
2022/09/11 07:44:53;;;;;;;;;26.00;25.00;;;;;17.27;75.33;101576.59;4906883;28;45575;-74
2022/09/11 07:47:18;;;;;;;;;31.25;29.75;;;;;17.27;74.78;101573.91;4907624;28;45542;-74
2022/09/11 07:49:46;;;;;;;;;25.00;23.75;;;;;17.27;75.18;101564.94;4887127;28;56923;-74
2022/09/11 07:52:13;;;;;;;;;28.00;25.00;;;;;17.35;74.97;101574.41;4892849;28;45519;-74
2022/09/11 07:54:38;;;;;;;;;22.25;22.00;;;;;17.36;75.13;101573.47;4900231;28;45525;-74
2022/09/11 07:57:04;;;;;;;;;28.50;27.25;;;;;17.36;75.19;101570.78;4906310;28;55515;-74
2022/09/11 07:59:29;;;;;;;;;24.25;24.25;;;;;17.35;75.20;101560.91;4915527;28;45394;-74
2022/09/11 08:01:55;;;;;;;;;29.50;26.75;;;;;17.43;74.94;101565.97;4892702;28;45337;-74
2022/09/11 08:04:20;;;;;;;;;30.00;26.75;;;;;17.48;75.05;101573.84;4902938;28;45325;-74
2022/09/11 08:06:46;;;;;;;;;26.75;26.75;;;;;17.49;75.25;101570.19;4906827;28;45529;-74
2022/09/11 08:09:14;;;;;;;;;31.00;29.25;;;;;17.51;75.17;101577.25;4918107;28;47055;-74
2022/09/11 08:11:47;;;;;;;;;24.00;22.00;;;;;17.47;75.06;101564.84;4912081;28;45546;-74
2022/09/11 08:14:14;;;;;;;;;30.25;29.25;;;;;17.56;75.53;101582.44;4909631;28;45471;-74
2022/09/11 08:16:40;;;;;;;;;34.25;30.00;;;;;17.55;75.20;101575.28;4895576;28;45751;-74
2022/09/11 08:19:07;;;;;;;;;30.50;29.25;;;;;17.50;74.88;101567.41;4916328;28;45522;-74
2022/09/11 08:21:33;;;;;;;;;30.50;29.50;;;;;17.57;75.12;101570.69;4899819;28;45673;-74
2022/09/11 08:23:58;;;;;;;;;31.75;28.75;;;;;17.53;75.14;101569.97;4910476;28;45366;-74
2022/09/11 08:26:27;;;;;;;;;28.00;26.00;;;;;17.52;75.19;101561.94;4908958;28;45330;-74
2022/09/11 08:28:54;;;;;;;;;30.00;27.00;;;;;17.64;75.18;101572.16;4890652;28;45978;-74
2022/09/11 08:31:25;;;;;;;;;27.00;23.75;;;;;17.62;74.78;101565.06;4908210;28;45810;-74
2022/09/11 08:33:50;;;;;;;;;32.25;29.25;;;;;17.57;74.92;101563.47;4902684;28;45393;-74
2022/09/11 08:36:16;;;;;;;;;29.50;29.25;;;;;17.68;75.07;101575.56;4909403;28;45349;-74
2022/09/11 08:38:43;;;;;;;;;32.25;29.00;;;;;17.62;74.94;101565.94;4901017;28;46311;-75
2022/09/11 08:41:19;;;;;;;;;30.50;28.50;;;;;17.67;74.60;101568.41;4902003;29;45591;-74
2022/09/11 08:43:51;;;;;;;;;29.75;26.00;;;;;17.71;75.15;101573.59;4902064;29;45391;-74
2022/09/11 08:46:21;;;;;;;;;30.50;28.25;;;;;17.83;75.27;101592.84;4902625;29;45435;-75
2022/09/11 08:49:05;;;;;;;;;28.75;28.50;;;;;17.68;74.50;101575.56;4902715;29;46482;-75
2022/09/11 08:51:31;;;;;;;;;26.00;25.50;;;;;17.79;74.45;101592.09;4894195;28;45392;-75
2022/09/11 08:53:58;;;;;;;;;34.25;29.75;;;;;17.74;75.04;101586.94;4903587;28;45481;-75
2022/09/11 08:56:28;;;;;;;;;24.75;23.25;;;;;17.77;74.41;101584.09;4905575;28;45587;-75
2022/09/11 08:59:28;;;;;;;;;26.25;25.75;;;;;17.84;75.14;101592.78;4915450;28;45395;-75
2022/09/11 09:02:05;;;;;;;;;29.25;24.25;;;;;17.90;74.27;101599.72;4915466;28;45272;-75
2022/09/11 09:04:44;;;;;;;;;29.00;28.00;;;;;17.91;74.64;101596.94;4911474;28;45586;-75
2022/09/11 09:07:18;;;;;;;;;31.75;30.00;;;;;17.95;74.48;101603.06;4902327;28;45456;-75
2022/09/11 09:09:47;;;;;;;;;29.50;25.50;;;;;17.96;74.39;101603.00;4911197;28;46163;-75
2022/09/11 09:12:21;;;;;;;;;32.75;30.25;;;;;17.99;75.44;101606.50;4905579;28;45257;-75
2022/09/11 09:14:57;;;;;;;;;32.75;30.50;;;;;17.94;75.17;101585.09;4902721;29;45328;-75
2022/09/11 09:17:49;;;;;;;;;28.75;27.25;;;;;18.06;75.15;101602.50;4905958;28;45276;-75
2022/09/11 09:20:28;;;;;;;;;29.75;28.00;;;;;18.15;75.10;101602.94;4895544;28;46041;-75
2022/09/11 09:23:00;;;;;;;;;31.25;29.75;;;;;18.20;75.34;101596.44;4889622;28;45518;-75
2022/09/11 09:25:27;;;;;;;;;32.75;30.75;;;;;18.06;74.37;101567.41;4907420;28;45476;-75
2022/09/11 09:27:59;;;;;;;;;33.50;29.50;;;;;18.29;75.08;101595.94;4907759;28;45416;-75
2022/09/11 09:30:50;;;;;;;;;31.25;29.75;;;;;18.27;75.14;101590.63;4902697;28;46237;-69
2022/09/11 09:33:26;;;;;;;;;27.25;26.00;;;;;18.31;74.08;101591.38;4884221;29;45410;-70
2022/09/11 09:35:53;;;;;;;;;30.50;26.75;;;;;18.44;73.82;101613.22;4894134;28;45366;-69
2022/09/11 09:38:23;;;;;;;;;31.25;29.75;;;;;18.31;73.21;101581.41;4901908;29;45386;-70
2022/09/11 09:41:17;;;;;;;;;;;;;;;;;;;;;
2022/09/11 09:43:50;;;;;;;;;28.00;27.75;;;;;18.26;74.50;101567.28;4880314;29;74028;-69
2022/09/11 09:46:41;;;;;;;;;36.75;32.00;;;;;18.42;74.53;101591.66;4899573;28;45510;-69
2022/09/11 09:49:16;;;;;;;;;27.00;24.50;;;;;18.57;75.15;101597.25;4898216;29;45761;-69
2022/09/11 09:51:42;;;;;;;;;33.75;30.50;;;;;18.46;75.03;101560.81;4897964;29;45727;-70
2022/09/11 09:54:17;;;;;;;;;30.75;29.75;;;;;18.55;74.90;101566.72;4881528;29;45592;-69
2022/09/11 09:56:52;;;;;;;;;22.25;22.25;;;;;18.72;74.42;101592.84;4880709;29;45649;-69
2022/09/11 09:59:29;;;;;;;;;24.25;22.50;;;;;18.68;74.09;101574.09;4879991;29;45902;-69
2022/09/11 10:01:54;;;;;;;;;20.00;18.25;;;;;18.82;73.87;101583.28;4880762;29;46892;-69
2022/09/11 10:04:25;;;;;;;;;15.50;15.50;;;;;18.79;73.24;101570.78;4898220;29;45650;-69
2022/09/11 10:07:03;;;;;;;;;16.50;14.75;;;;;18.87;72.64;101579.41;4881238;29;45512;-69
2022/09/11 10:09:30;;;;;;;;;23.50;22.25;;;;;18.80;72.91;101561.72;4897432;29;45861;-68
2022/09/11 10:12:01;;;;;;;;;21.50;17.25;;;;;18.98;72.64;101576.13;4878587;29;48168;-68
2022/09/11 10:14:32;;;;;;;;;19.75;18.25;;;;;18.92;72.75;101554.81;4880783;29;45687;-69
2022/09/11 10:17:03;;;;;;;;;18.50;17.50;;;;;18.95;73.09;101556.50;4897701;29;45720;-68
2022/09/11 10:19:38;;;;;;;;;21.25;19.00;;;;;19.16;72.37;101586.88;4880863;29;45833;-68
2022/09/11 10:22:30;;;;;;;;;20.50;18.75;;;;;19.20;72.86;101592.06;4899470;29;45580;-68
2022/09/11 10:25:17;;;;;;;;;19.00;17.50;;;;;19.04;72.25;101545.13;4862699;29;45683;-68
2022/09/11 10:28:10;;;;;;;;;20.75;17.50;;;;;19.30;72.49;101578.88;4901162;29;45625;-68
2022/09/11 10:30:39;;;;;;;;;17.00;16.00;;;;;19.31;72.58;101566.22;4883213;29;45454;-68
2022/09/11 10:33:20;;;;;;;;;15.50;15.50;;;;;19.40;72.41;101566.56;4883847;29;47864;-68
2022/09/11 10:35:57;;;;;;;;;16.00;15.25;;;;;19.47;72.08;101568.94;4900621;29;45766;-69
2022/09/11 10:38:46;;;;;;;;;18.25;17.50;;;;;19.52;71.72;101564.13;4901174;29;45496;-69
2022/09/11 10:41:11;;;;;;;;;16.75;15.00;;;;;19.60;72.41;101564.56;4899561;29;45769;-68
2022/09/11 10:44:02;;;;;;;;;19.50;16.75;;;;;19.67;71.52;101575.94;4894028;28;47255;-68
2022/09/11 10:46:38;;;;;;;;;11.75;11.75;;;;;19.67;70.88;101557.84;4886722;29;45700;-69
2022/09/11 10:49:04;;;;;;;;;12.50;12.50;;;;;19.72;70.63;101566.56;4896866;29;45638;-66
2022/09/11 10:51:40;;;;;;;;;15.75;15.25;;;;;19.74;71.15;101547.53;4915464;28;45453;-71
2022/09/11 10:54:36;;;;;;;;;12.25;12.25;;;;;19.81;70.69;101551.63;4900058;29;45733;-70
2022/09/11 10:57:27;;;;;;;;;16.75;16.75;;;;;19.84;70.47;101547.91;4900534;29;45683;-67
2022/09/11 10:59:56;;;;;;;;;14.00;11.00;;;;;19.88;70.46;101539.50;4915556;28;45986;-67
2022/09/11 11:02:28;;;;;;;;;12.75;12.75;;;;;19.84;69.43;101524.38;4900674;29;45612;-67
2022/09/11 11:04:56;;;;;;;;;14.00;13.25;;;;;19.90;69.62;101537.56;4901073;29;45604;-67
2022/09/11 11:07:47;;;;;;;;;11.75;11.75;;;;;19.96;69.18;101529.09;4907043;28;45778;-68
2022/09/11 11:10:19;;;;;;;;;13.75;13.00;;;;;19.99;68.91;101526.16;4901140;28;45659;-69
2022/09/11 11:12:44;;;;;;;;;9.50;9.50;;;;;20.05;69.34;101529.50;4909199;28;45606;-68
2022/09/11 11:15:20;;;;;;;;;7.50;7.25;;;;;20.01;68.65;101517.09;4899955;29;46335;-68
2022/09/11 11:18:14;;;;;;;;;9.50;9.00;;;;;20.06;68.85;101518.53;4900692;28;45781;-69
2022/09/11 11:20:59;;;;;;;;;10.25;9.00;;;;;20.11;68.70;101516.47;4859379;29;45510;-69
2022/09/11 11:23:40;;;;;;;;;8.00;8.00;;;;;20.10;68.04;101514.69;4898374;29;45916;-69
2022/09/11 11:26:16;;;;;;;;;13.25;9.00;;;;;20.26;67.68;101521.91;4900703;29;46000;-69